createdAt,value
2023-06-28T00:00:40.963Z,99455.00
2023-06-28T00:03:12.240Z,99456.75
2023-06-28T00:05:38.944Z,99462.13
2023-06-28T00:08:05.666Z,99461.31
2023-06-28T00:10:32.456Z,99458.59
2023-06-28T00:12:59.170Z,99453.03
2023-06-28T00:15:25.650Z,99454.31
2023-06-28T00:17:52.193Z,99457.75
2023-06-28T00:20:18.777Z,99448.19
2023-06-28T00:22:45.356Z,99457.78
2023-06-28T00:25:11.913Z,99462.78
2023-06-28T00:27:38.602Z,99450.59
2023-06-28T00:30:05.718Z,99449.75
2023-06-28T00:32:32.233Z,99455.88
2023-06-28T00:34:58.751Z,99454.91
2023-06-28T00:37:25.973Z,99461.81
2023-06-28T00:39:52.492Z,99456.66
2023-06-28T00:42:18.971Z,99455.84
2023-06-28T00:44:45.473Z,99455.03
2023-06-28T00:47:11.938Z,99454.06
2023-06-28T00:49:39.111Z,99445.25
2023-06-28T00:52:07.117Z,99441.66
2023-06-28T00:54:33.690Z,99450.09
2023-06-28T00:57:00.622Z,99448.56
2023-06-28T00:59:27.632Z,99453.00
2023-06-28T01:01:56.079Z,99454.69
2023-06-28T01:04:22.923Z,99451.78
2023-06-28T01:06:55.631Z,99454.31
2023-06-28T01:09:24.022Z,99459.56
2023-06-28T01:11:52.346Z,99460.47
2023-06-28T01:14:19.531Z,99463.75
2023-06-28T01:16:50.747Z,99467.44
2023-06-28T01:19:17.751Z,99458.72
2023-06-28T01:21:46.835Z,99459.41
2023-06-28T01:24:14.053Z,99463.00
2023-06-28T01:26:40.893Z,99456.91
2023-06-28T01:29:07.941Z,99474.72
2023-06-28T01:31:37.407Z,99471.13
2023-06-28T01:34:03.928Z,99477.91
2023-06-28T01:36:30.679Z,99474.41
2023-06-28T01:38:57.312Z,99474.56
2023-06-28T01:41:24.540Z,99484.72
2023-06-28T01:43:51.066Z,99482.13
2023-06-28T01:46:17.731Z,99491.44
2023-06-28T01:48:44.229Z,99483.28
2023-06-28T01:51:11.120Z,99477.84
2023-06-28T01:53:37.582Z,99486.34
2023-06-28T01:56:04.158Z,99472.94
2023-06-28T01:58:30.583Z,99475.13
2023-06-28T02:00:57.186Z,99470.00
2023-06-28T02:03:23.851Z,99469.88
2023-06-28T02:05:50.372Z,99466.63
2023-06-28T02:08:17.092Z,99468.41
2023-06-28T02:10:43.737Z,99473.06
2023-06-28T02:13:10.490Z,99479.22
2023-06-28T02:15:37.096Z,99469.41
2023-06-28T02:18:04.829Z,99472.78
2023-06-28T02:20:31.311Z,99475.63
2023-06-28T02:22:57.824Z,99469.22
2023-06-28T02:25:24.271Z,99467.94
2023-06-28T02:27:50.785Z,99459.91
2023-06-28T02:30:17.339Z,99461.75
2023-06-28T02:32:43.811Z,99460.25
2023-06-28T02:35:10.282Z,99464.47
2023-06-28T02:37:36.972Z,99460.19
2023-06-28T02:40:04.218Z,99460.13
2023-06-28T02:42:30.656Z,99463.88
2023-06-28T02:44:58.444Z,99463.72
2023-06-28T02:47:24.899Z,99459.19
2023-06-28T02:49:51.328Z,99455.75
2023-06-28T02:52:17.804Z,99459.25
2023-06-28T02:54:44.272Z,99456.81
2023-06-28T02:57:11.367Z,99468.25
2023-06-28T02:59:37.937Z,99464.75
2023-06-28T03:02:05.729Z,99455.59
2023-06-28T03:04:33.954Z,99452.00
2023-06-28T03:07:00.515Z,99451.75
2023-06-28T03:09:27.040Z,99450.75
2023-06-28T03:11:53.505Z,99449.25
2023-06-28T03:14:20.048Z,99452.22
2023-06-28T03:16:46.489Z,99451.41
2023-06-28T03:19:12.934Z,99453.19
2023-06-28T03:21:39.525Z,99448.31
2023-06-28T03:24:06.178Z,99453.34
2023-06-28T03:26:32.624Z,99450.09
2023-06-28T03:28:59.602Z,99452.53
2023-06-28T03:31:26.237Z,99456.13
2023-06-28T03:33:52.748Z,99457.84
2023-06-28T03:36:19.189Z,99460.22
2023-06-28T03:38:45.681Z,99452.66
2023-06-28T03:41:14.138Z,99447.34
2023-06-28T03:43:40.614Z,99458.44
2023-06-28T03:46:07.139Z,99453.13
2023-06-28T03:48:33.616Z,99446.34
2023-06-28T03:51:00.103Z,99452.13
2023-06-28T03:53:26.558Z,99449.69
2023-06-28T03:55:53.087Z,99449.81
2023-06-28T03:58:19.552Z,99451.69
2023-06-28T04:00:46.089Z,99458.66
2023-06-28T04:03:12.680Z,99465.81
2023-06-28T04:05:39.204Z,99456.91
2023-06-28T04:08:06.752Z,99460.97
2023-06-28T04:10:33.223Z,99456.00
2023-06-28T04:12:59.709Z,99455.84
2023-06-28T04:15:26.119Z,99453.19
2023-06-28T04:17:52.725Z,99457.41
2023-06-28T04:20:19.594Z,99454.59
2023-06-28T04:22:46.358Z,99452.41
2023-06-28T04:25:12.989Z,99451.09
2023-06-28T04:27:39.698Z,99447.09
2023-06-28T04:30:06.786Z,99451.47
2023-06-28T04:32:33.270Z,99451.41
2023-06-28T04:35:02.686Z,99447.22
2023-06-28T04:37:32.402Z,99452.66
2023-06-28T04:39:59.705Z,99459.88
2023-06-28T04:42:26.380Z,99456.53
2023-06-28T04:44:52.832Z,99450.50
2023-06-28T04:47:19.259Z,99460.72
2023-06-28T04:49:50.540Z,99444.31
2023-06-28T04:52:19.895Z,99451.50
2023-06-28T04:54:46.871Z,99452.16
2023-06-28T04:57:14.687Z,99458.88
2023-06-28T04:59:41.357Z,99450.75
2023-06-28T05:02:07.961Z,99449.81
2023-06-28T05:04:34.712Z,99456.00
2023-06-28T05:07:07.524Z,99456.97
2023-06-28T05:09:35.353Z,99457.78
2023-06-28T05:12:03.505Z,99467.16
2023-06-28T05:14:30.745Z,99459.91
2023-06-28T05:16:57.273Z,99461.38
2023-06-28T05:19:24.478Z,99462.03
2023-06-28T05:21:51.834Z,99465.59
2023-06-28T05:24:19.427Z,99466.47
2023-06-28T05:26:46.256Z,99468.81
2023-06-28T05:29:12.755Z,99475.78
2023-06-28T05:31:41.405Z,99472.13
2023-06-28T05:34:07.894Z,99468.50
2023-06-28T05:36:34.466Z,99471.47
2023-06-28T05:39:00.959Z,99468.94
2023-06-28T05:41:27.378Z,99480.38
2023-06-28T05:43:53.805Z,99475.84
2023-06-28T05:46:20.530Z,99471.72
2023-06-28T05:48:49.707Z,99471.00
2023-06-28T05:51:16.238Z,99476.84
2023-06-28T05:53:42.959Z,99473.00
2023-06-28T05:56:09.431Z,99468.22
2023-06-28T05:58:35.869Z,99477.78
2023-06-28T06:01:02.662Z,99468.25
2023-06-28T06:03:31.731Z,99465.16
2023-06-28T06:05:58.922Z,99469.56
2023-06-28T06:08:25.422Z,99469.03
2023-06-28T06:10:51.943Z,99465.44
2023-06-28T06:13:18.489Z,99477.16
2023-06-28T06:15:44.940Z,99472.31
2023-06-28T06:18:11.468Z,99476.03
2023-06-28T06:20:37.922Z,99479.97
2023-06-28T06:23:04.408Z,99477.66
2023-06-28T06:25:30.908Z,99485.72
2023-06-28T06:27:57.402Z,99482.47
2023-06-28T06:30:24.021Z,99483.22
2023-06-28T06:32:51.119Z,99483.03
2023-06-28T06:35:17.645Z,99480.31
2023-06-28T06:37:46.876Z,99482.09
2023-06-28T06:40:13.381Z,99483.91
2023-06-28T06:42:42.725Z,99498.16
2023-06-28T06:45:31.349Z,99499.34
2023-06-28T06:47:57.857Z,99495.28
2023-06-28T06:50:24.364Z,99505.53
2023-06-28T06:52:51.629Z,99503.88
2023-06-28T06:55:18.180Z,99508.97
2023-06-28T06:57:44.664Z,99504.72
2023-06-28T07:00:11.693Z,99502.41
2023-06-28T07:02:38.178Z,99499.84
2023-06-28T07:05:04.913Z,99504.03
2023-06-28T07:07:31.542Z,99504.03
2023-06-28T07:09:58.059Z,99500.53
2023-06-28T07:12:24.521Z,99497.94
2023-06-28T07:14:51.075Z,99507.56
2023-06-28T07:17:17.538Z,99497.44
2023-06-28T07:19:44.026Z,99499.09
2023-06-28T07:22:10.505Z,99506.19
2023-06-28T07:24:37.002Z,99497.16
2023-06-28T07:27:03.792Z,99495.38
2023-06-28T07:29:30.241Z,99492.22
2023-06-28T07:31:56.797Z,99488.00
2023-06-28T07:34:23.436Z,99489.06
2023-06-28T07:36:49.957Z,99489.16
2023-06-28T07:39:16.384Z,99496.00
2023-06-28T07:41:42.852Z,99487.81
2023-06-28T07:44:09.314Z,99490.72
2023-06-28T07:46:35.919Z,99492.47
2023-06-28T07:49:02.484Z,99490.81
2023-06-28T07:51:28.956Z,99489.50
2023-06-28T07:53:55.393Z,99488.81
2023-06-28T07:56:23.044Z,99484.41
2023-06-28T07:58:49.656Z,99494.91
2023-06-28T08:01:16.440Z,99494.84
2023-06-28T08:03:42.959Z,99493.06
2023-06-28T08:06:09.474Z,99492.16
2023-06-28T08:08:35.894Z,99493.25
2023-06-28T08:11:02.411Z,99481.34
2023-06-28T08:13:28.915Z,99495.47
2023-06-28T08:15:55.342Z,99496.13
2023-06-28T08:18:21.792Z,99488.25
2023-06-28T08:20:49.028Z,99489.97
2023-06-28T08:23:15.633Z,99485.34
2023-06-28T08:25:42.637Z,99483.09
2023-06-28T08:28:09.388Z,99487.56
2023-06-28T08:30:35.900Z,99485.81
2023-06-28T08:33:04.048Z,99490.16
2023-06-28T08:35:30.646Z,99493.94
2023-06-28T08:37:57.438Z,99498.50
2023-06-28T08:40:28.818Z,99488.31
2023-06-28T08:43:03.047Z,99490.13
2023-06-28T08:45:33.661Z,99484.97
2023-06-28T08:48:04.994Z,99491.81
2023-06-28T08:50:39.824Z,99489.91
2023-06-28T08:53:09.368Z,99485.41
2023-06-28T08:55:36.453Z,99484.50
2023-06-28T08:58:03.434Z,99489.84
2023-06-28T09:00:29.969Z,99475.25
2023-06-28T09:02:58.056Z,99479.50
2023-06-28T09:05:24.685Z,99483.97
2023-06-28T09:07:52.368Z,99483.19
2023-06-28T09:10:19.432Z,99483.38
2023-06-28T09:12:46.437Z,99476.56
2023-06-28T09:15:13.251Z,99477.47
2023-06-28T09:17:39.966Z,99484.56
2023-06-28T09:20:20.351Z,99479.53
2023-06-28T09:22:57.554Z,99475.13
2023-06-28T09:25:25.392Z,99480.44
2023-06-28T09:27:51.871Z,99476.06
2023-06-28T09:30:19.742Z,99468.19
2023-06-28T09:32:51.538Z,99465.59
2023-06-28T09:35:19.066Z,99471.69
2023-06-28T09:37:55.995Z,99470.81
2023-06-28T09:40:22.718Z,99477.81
2023-06-28T09:42:50.566Z,99473.44
2023-06-28T09:45:30.037Z,99478.69
2023-06-28T09:48:04.122Z,99473.44
2023-06-28T09:50:46.894Z,99473.41
2023-06-28T09:53:23.045Z,99481.22
2023-06-28T09:55:51.142Z,99485.66
2023-06-28T09:58:18.919Z,99476.94
2023-06-28T10:00:47.259Z,99486.53
2023-06-28T10:03:15.737Z,99480.41
2023-06-28T10:05:44.709Z,99477.81
2023-06-28T10:08:15.721Z,99473.47
2023-06-28T10:10:43.890Z,99468.22
2023-06-28T10:13:14.789Z,99468.22
2023-06-28T10:16:17.696Z,99461.19
2023-06-28T10:18:44.252Z,99464.72
2023-06-28T10:21:11.333Z,99457.72
2023-06-28T10:23:40.200Z,99457.72
2023-06-28T10:26:07.153Z,99455.03
2023-06-28T10:28:35.404Z,99464.53
2023-06-28T10:31:05.741Z,99460.34
2023-06-28T10:33:33.405Z,99462.97
2023-06-28T10:36:03.859Z,99468.19
2023-06-28T10:38:35.406Z,99462.97
2023-06-28T10:41:02.490Z,99466.44
2023-06-28T10:43:29.709Z,99461.09
2023-06-28T10:45:56.227Z,99466.31
2023-06-28T10:48:23.862Z,99455.69
2023-06-28T10:50:51.459Z,99470.66
2023-06-28T10:53:22.282Z,99466.25
2023-06-28T10:56:09.081Z,99462.66
2023-06-28T10:58:43.388Z,99460.25
2023-06-28T11:01:31.975Z,99462.03
2023-06-28T11:04:13.776Z,99468.13
2023-06-28T11:06:40.796Z,99463.72
2023-06-28T11:09:17.725Z,99463.69
2023-06-28T11:11:58.691Z,99459.38
2023-06-28T11:14:32.453Z,99453.28
2023-06-28T11:17:06.888Z,99458.47
2023-06-28T11:19:33.706Z,99458.44
2023-06-28T11:22:01.789Z,99458.38
2023-06-28T11:24:37.856Z,99453.81
2023-06-28T11:27:10.566Z,99452.84
2023-06-28T11:29:53.024Z,99455.56
2023-06-28T11:32:32.037Z,99451.19
2023-06-28T11:34:59.634Z,99448.81
2023-06-28T11:37:26.311Z,99444.22
2023-06-28T11:39:52.881Z,99440.22
2023-06-28T11:42:20.201Z,99435.44
2023-06-28T11:44:48.281Z,99437.97
2023-06-28T11:47:22.908Z,99437.03
2023-06-28T11:49:51.410Z,99432.09
2023-06-28T11:52:18.900Z,99434.50
2023-06-28T11:54:45.404Z,99433.44
2023-06-28T11:57:12.280Z,99427.97
2023-06-28T11:59:45.320Z,99439.38
2023-06-28T12:02:12.291Z,99429.59
2023-06-28T12:04:39.935Z,99425.88
2023-06-28T12:07:07.118Z,99430.03
2023-06-28T12:09:35.819Z,99425.25
2023-06-28T12:12:06.903Z,99423.06
2023-06-28T12:14:41.198Z,99416.00
2023-06-28T12:17:07.703Z,99414.72
2023-06-28T12:19:37.056Z,99417.94
2023-06-28T12:22:04.965Z,99415.78
2023-06-28T12:24:38.453Z,99422.28
2023-06-28T12:27:06.641Z,99411.22
2023-06-28T12:29:36.424Z,99415.41
2023-06-28T12:32:06.268Z,99408.25
2023-06-28T12:34:35.371Z,99401.59
2023-06-28T12:37:04.388Z,99401.88
2023-06-28T12:39:35.785Z,99407.63
2023-06-28T12:42:12.413Z,99399.66
2023-06-28T12:44:54.687Z,99391.19
2023-06-28T12:47:23.064Z,99396.03
2023-06-28T12:49:51.226Z,99394.19
2023-06-28T12:52:18.302Z,99397.28
2023-06-28T12:54:46.422Z,99398.41
2023-06-28T12:57:12.899Z,99392.03
2023-06-28T12:59:41.125Z,99385.66
2023-06-28T13:02:08.507Z,99388.25
2023-06-28T13:04:37.367Z,99377.34
2023-06-28T13:07:04.756Z,99381.03
2023-06-28T13:09:31.477Z,99375.81
2023-06-28T13:11:57.974Z,99375.19
2023-06-28T13:14:24.853Z,99369.63
2023-06-28T13:16:51.667Z,99375.28
2023-06-28T13:19:18.081Z,99371.31
2023-06-28T13:21:52.266Z,99370.94
2023-06-28T13:24:21.023Z,99376.63
2023-06-28T13:26:47.577Z,99357.72
2023-06-28T13:29:16.426Z,99367.47
2023-06-28T13:31:44.361Z,99362.56
2023-06-28T13:34:11.228Z,99365.81
2023-06-28T13:36:37.742Z,99356.81
2023-06-28T13:39:04.224Z,99352.44
2023-06-28T13:41:33.486Z,99363.28
2023-06-28T13:44:00.333Z,99354.41
2023-06-28T13:46:26.906Z,99354.25
2023-06-28T13:48:54.167Z,99350.06
2023-06-28T13:51:20.607Z,99343.19
2023-06-28T13:53:47.116Z,99343.69
2023-06-28T13:56:13.639Z,99345.94
2023-06-28T13:58:40.113Z,99348.31
2023-06-28T14:01:06.649Z,99351.88
2023-06-28T14:03:33.241Z,99350.00
2023-06-28T14:05:59.718Z,99344.91
2023-06-28T14:08:26.164Z,99346.28
2023-06-28T14:10:53.259Z,99346.72
2023-06-28T14:13:19.828Z,99343.28
2023-06-28T14:15:46.704Z,99340.00
2023-06-28T14:18:13.628Z,99338.63
2023-06-28T14:20:40.683Z,99346.47
2023-06-28T14:23:07.140Z,99347.50
2023-06-28T14:25:33.674Z,99339.31
2023-06-28T14:28:00.225Z,99339.00
2023-06-28T14:30:27.570Z,99334.00
2023-06-28T14:32:54.691Z,99335.16
2023-06-28T14:35:22.521Z,99327.00
2023-06-28T14:37:50.501Z,99332.38
2023-06-28T14:40:17.580Z,99323.44
2023-06-28T14:42:44.143Z,99323.94
2023-06-28T14:45:13.950Z,99325.13
2023-06-28T14:47:42.524Z,99339.22
2023-06-28T14:50:09.802Z,99326.56
2023-06-28T14:52:36.938Z,99328.47
2023-06-28T14:55:03.683Z,99329.59
2023-06-28T14:57:30.314Z,99330.34
2023-06-28T14:59:57.652Z,99327.19
2023-06-28T15:02:24.135Z,99327.94
2023-06-28T15:04:52.957Z,99325.72
2023-06-28T15:07:19.678Z,99323.03
2023-06-28T15:09:46.199Z,99317.09
2023-06-28T15:12:13.370Z,99321.34
2023-06-28T15:14:40.173Z,99318.88
2023-06-28T15:17:06.716Z,99321.22
2023-06-28T15:19:34.125Z,99315.44
2023-06-28T15:22:00.726Z,99318.03
2023-06-28T15:24:27.323Z,99310.97
2023-06-28T15:26:55.069Z,99312.19
2023-06-28T15:29:21.968Z,99314.53
2023-06-28T15:31:49.304Z,99304.19
2023-06-28T15:34:15.835Z,99307.59
2023-06-28T15:36:42.431Z,99302.03
2023-06-28T15:39:09.415Z,99300.41
2023-06-28T15:41:35.918Z,99298.63
2023-06-28T15:44:02.343Z,99309.13
2023-06-28T15:46:32.927Z,99299.53
2023-06-28T15:48:59.576Z,99300.22
2023-06-28T15:51:27.314Z,99291.50
2023-06-28T15:53:54.456Z,99295.25
2023-06-28T15:56:22.967Z,99282.47
2023-06-28T15:58:50.879Z,99282.28
2023-06-28T16:01:17.993Z,99284.97
2023-06-28T16:03:44.680Z,99274.50
2023-06-28T16:06:11.616Z,99275.25
2023-06-28T16:08:38.929Z,99274.84
2023-06-28T16:11:06.065Z,99279.91
2023-06-28T16:13:32.528Z,99276.31
2023-06-28T16:16:01.743Z,99266.09
2023-06-28T16:18:28.204Z,99267.22
2023-06-28T16:20:54.647Z,99260.41
2023-06-28T16:23:21.875Z,99268.00
2023-06-28T16:25:48.715Z,99265.03
2023-06-28T16:28:15.344Z,99265.53
2023-06-28T16:30:42.051Z,99260.47
2023-06-28T16:33:09.553Z,99261.09
2023-06-28T16:35:36.607Z,99257.47
2023-06-28T16:38:03.204Z,99255.69
2023-06-28T16:40:29.757Z,99255.69
2023-06-28T16:42:56.250Z,99255.59
2023-06-28T16:45:22.726Z,99258.78
2023-06-28T16:47:49.547Z,99252.09
2023-06-28T16:50:16.085Z,99265.81
2023-06-28T16:52:42.705Z,99257.81
2023-06-28T16:55:09.230Z,99261.34
2023-06-28T16:57:35.746Z,99255.88
2023-06-28T17:00:02.181Z,99262.38
2023-06-28T17:02:28.915Z,99265.34
2023-06-28T17:04:55.459Z,99261.84
2023-06-28T17:07:21.927Z,99260.88
2023-06-28T17:09:49.274Z,99262.03
2023-06-28T17:12:15.748Z,99270.28
2023-06-28T17:14:42.334Z,99267.31
2023-06-28T17:17:08.798Z,99267.16
2023-06-28T17:19:35.283Z,99263.22
2023-06-28T17:22:02.233Z,99266.09
2023-06-28T17:24:29.420Z,99259.59
2023-06-28T17:26:57.864Z,99267.63
2023-06-28T17:29:25.369Z,99266.25
2023-06-28T17:31:53.650Z,99268.06
2023-06-28T17:34:20.524Z,99264.50
2023-06-28T17:36:47.872Z,99263.69
2023-06-28T17:39:18.992Z,99262.47
2023-06-28T17:41:45.500Z,99260.66
2023-06-28T17:44:11.947Z,99270.34
2023-06-28T17:46:38.469Z,99269.44
2023-06-28T17:49:04.914Z,99272.50
2023-06-28T17:51:31.367Z,99278.59
2023-06-28T17:53:58.708Z,99277.84
2023-06-28T17:56:26.351Z,99273.22
2023-06-28T17:58:53.100Z,99278.44
2023-06-28T18:01:19.686Z,99271.44
2023-06-28T18:03:48.352Z,99261.78
2023-06-28T18:06:16.186Z,99273.19
2023-06-28T18:08:42.724Z,99270.41
2023-06-28T18:11:09.226Z,99271.44
2023-06-28T18:13:35.680Z,99276.03
2023-06-28T18:16:02.481Z,99271.44
2023-06-28T18:18:28.929Z,99270.59
2023-06-28T18:20:55.398Z,99267.09
2023-06-28T18:23:21.862Z,99267.00
2023-06-28T18:25:48.422Z,99271.66
2023-06-28T18:28:14.847Z,99281.47
2023-06-28T18:30:41.693Z,99280.59
2023-06-28T18:33:08.406Z,99278.97
2023-06-28T18:35:34.926Z,99281.53
2023-06-28T18:38:02.695Z,99278.81
2023-06-28T18:40:29.159Z,99277.19
2023-06-28T18:42:55.612Z,99277.31
2023-06-28T18:45:22.077Z,99279.00
2023-06-28T18:47:48.601Z,99279.97
2023-06-28T18:50:15.162Z,99282.72
2023-06-28T18:52:41.751Z,99284.44
2023-06-28T18:55:09.278Z,99280.84
2023-06-28T18:57:35.781Z,99278.22
2023-06-28T19:00:02.490Z,99273.91
2023-06-28T19:02:30.556Z,99269.72
2023-06-28T19:04:58.784Z,99273.13
2023-06-28T19:07:25.550Z,99273.16
2023-06-28T19:09:52.616Z,99267.78
2023-06-28T19:12:19.132Z,99270.41
2023-06-28T19:14:45.591Z,99271.47
2023-06-28T19:17:12.033Z,99283.78
2023-06-28T19:19:38.452Z,99280.28
2023-06-28T19:22:05.206Z,99281.09
2023-06-28T19:24:31.751Z,99278.66
2023-06-28T19:26:58.289Z,99280.44
2023-06-28T19:29:24.854Z,99284.81
2023-06-28T19:31:51.390Z,99276.06
2023-06-28T19:34:17.802Z,99270.88
2023-06-28T19:36:44.369Z,99279.69
2023-06-28T19:39:10.842Z,99273.69
2023-06-28T19:41:37.391Z,99276.31
2023-06-28T19:44:03.935Z,99279.78
2023-06-28T19:46:30.397Z,99277.22
2023-06-28T19:48:56.854Z,99278.06
2023-06-28T19:51:23.324Z,99280.00
2023-06-28T19:53:49.801Z,99277.44
2023-06-28T19:56:16.305Z,99285.28
2023-06-28T19:58:42.867Z,99285.25
2023-06-28T20:01:10.409Z,99279.19
2023-06-28T20:03:37.246Z,99278.34
2023-06-28T20:06:05.945Z,99284.41
2023-06-28T20:08:35.224Z,99285.34
2023-06-28T20:11:01.669Z,99282.78
2023-06-28T20:13:30.192Z,99283.72
2023-06-28T20:15:58.251Z,99280.22
2023-06-28T20:18:24.763Z,99278.50
2023-06-28T20:20:51.314Z,99275.81
2023-06-28T20:23:17.794Z,99283.69
2023-06-28T20:25:45.487Z,99281.06
2023-06-28T20:28:13.176Z,99281.19
2023-06-28T20:30:39.849Z,99278.50
2023-06-28T20:33:07.652Z,99282.91
2023-06-28T20:35:36.468Z,99279.38
2023-06-28T20:38:04.318Z,99291.69
2023-06-28T20:40:30.859Z,99290.00
2023-06-28T20:42:59.855Z,99284.78
2023-06-28T20:45:26.715Z,99291.81
2023-06-28T20:47:53.286Z,99295.34
2023-06-28T20:50:19.995Z,99298.84
2023-06-28T20:52:46.518Z,99297.06
2023-06-28T20:55:13.002Z,99292.72
2023-06-28T20:57:39.592Z,99292.69
2023-06-28T21:00:13.036Z,99290.97
2023-06-28T21:02:39.677Z,99286.66
2023-06-28T21:05:07.311Z,99289.25
2023-06-28T21:07:34.111Z,99297.94
2023-06-28T21:10:00.808Z,99303.16
2023-06-28T21:12:27.332Z,99298.78
2023-06-28T21:14:53.766Z,99297.91
2023-06-28T21:17:20.212Z,99299.69
2023-06-28T21:19:46.714Z,99305.81
2023-06-28T21:22:13.156Z,99296.19
2023-06-28T21:24:39.621Z,99297.94
2023-06-28T21:27:06.427Z,99303.91
2023-06-28T21:29:32.961Z,99293.44
2023-06-28T21:31:59.477Z,99300.44
2023-06-28T21:34:27.554Z,99294.34
2023-06-28T21:36:54.041Z,99302.19
2023-06-28T21:39:20.482Z,99305.63
2023-06-28T21:41:46.934Z,99299.50
2023-06-28T21:44:13.366Z,99304.75
2023-06-28T21:46:39.808Z,99302.03
2023-06-28T21:49:06.337Z,99293.34
2023-06-28T21:51:32.773Z,99306.34
2023-06-28T21:53:59.261Z,99309.75
2023-06-28T21:56:25.714Z,99308.84
2023-06-28T21:58:52.174Z,99312.31
2023-06-28T22:01:19.433Z,99307.00
2023-06-28T22:03:45.889Z,99301.78
2023-06-28T22:06:12.352Z,99305.34
2023-06-28T22:08:39.281Z,99301.69
2023-06-28T22:11:07.415Z,99300.81
2023-06-28T22:13:35.302Z,99311.34
2023-06-28T22:16:01.863Z,99300.84
2023-06-28T22:18:28.326Z,99308.72
2023-06-28T22:20:54.740Z,99308.63
2023-06-28T22:23:21.203Z,99305.19
2023-06-28T22:25:47.654Z,99301.69
2023-06-28T22:28:14.111Z,99299.88
2023-06-28T22:30:40.641Z,99309.25
2023-06-28T22:33:07.405Z,99306.59
2023-06-28T22:35:33.875Z,99304.56
2023-06-28T22:38:00.485Z,99303.81
2023-06-28T22:40:27.002Z,99297.00
2023-06-28T22:42:53.467Z,99296.03
2023-06-28T22:45:19.958Z,99304.88
2023-06-28T22:47:46.472Z,99306.41
2023-06-28T22:50:12.909Z,99302.84
2023-06-28T22:52:45.419Z,99304.69
2023-06-28T22:55:12.184Z,99301.84
2023-06-28T22:57:38.845Z,99298.34
2023-06-28T23:00:07.896Z,99301.78
2023-06-28T23:02:34.465Z,99300.91
2023-06-28T23:05:00.997Z,99301.91
2023-06-28T23:07:29.630Z,99308.69
2023-06-28T23:09:56.215Z,99306.09
2023-06-28T23:12:22.915Z,99309.44
2023-06-28T23:14:52.766Z,99305.13
2023-06-28T23:17:20.396Z,99295.56
2023-06-28T23:19:48.501Z,99297.09
2023-06-28T23:22:14.977Z,99305.63
2023-06-28T23:24:41.841Z,99302.03
2023-06-28T23:27:08.257Z,99304.63
2023-06-28T23:29:35.353Z,99302.63
2023-06-28T23:32:02.104Z,99306.09
2023-06-28T23:34:31.552Z,99290.47
2023-06-28T23:36:58.211Z,99297.59
2023-06-28T23:39:25.081Z,99288.00
2023-06-28T23:41:51.561Z,99284.47
2023-06-28T23:44:18.092Z,99291.41
2023-06-28T23:46:45.632Z,99285.16
2023-06-28T23:49:14.219Z,99287.66
2023-06-28T23:51:41.492Z,99283.25
2023-06-28T23:54:08.620Z,99280.66
2023-06-28T23:56:35.307Z,99284.84
2023-06-28T23:59:01.829Z,99283.22
